Terminal Aerodrome Forecast
Issued by NWS Binghamton, NY

Home | Current Version | Previous Version | Text Only | Print | Product List | Glossary On
Versions: 1 2 3 4 5 6 7 8 9 10 11 12 13 14 15 16 17 18
510
FTUS41 KBGM 301132
TAFAVP
TAF
KAVP 301132Z 3012/3112 VRB03KT P6SM OVC015
     FM301600 15007KT P6SM BKN025 OVC040
     FM302000 17009KT 6SM -SHRA BR OVC030
     FM310000 16005KT P6SM BKN015
     FM310200 VRB03KT P6SM OVC008
     FM311000 19004KT P6SM OVC020=

USA.gov is the U.S. government's official web portal to all federal, state and local government web resources and services.